sensor_id;sensor_type;location;lat;lon;timestamp;P1;durP1;ratioP1;P2;durP2;ratioP2
14892;SDS011;7538;53.626;9.906;2023-12-28T00:02:02;4.00;;;2.53;;
14892;SDS011;7538;53.626;9.906;2023-12-28T00:04:29;3.65;;;2.22;;
14892;SDS011;7538;53.626;9.906;2023-12-28T00:06:58;4.38;;;2.10;;
14892;SDS011;7538;53.626;9.906;2023-12-28T00:09:25;4.50;;;2.70;;
14892;SDS011;7538;53.626;9.906;2023-12-28T00:11:52;3.50;;;2.00;;
14892;SDS011;7538;53.626;9.906;2023-12-28T00:14:19;3.77;;;2.20;;
14892;SDS011;7538;53.626;9.906;2023-12-28T00:16:46;4.60;;;2.57;;
14892;SDS011;7538;53.626;9.906;2023-12-28T00:19:14;4.28;;;2.50;;
14892;SDS011;7538;53.626;9.906;2023-12-28T00:21:41;3.28;;;2.70;;
14892;SDS011;7538;53.626;9.906;2023-12-28T00:24:08;3.05;;;2.53;;
14892;SDS011;7538;53.626;9.906;2023-12-28T00:26:35;2.35;;;2.13;;
14892;SDS011;7538;53.626;9.906;2023-12-28T00:29:02;4.05;;;2.55;;
14892;SDS011;7538;53.626;9.906;2023-12-28T00:31:29;2.77;;;2.03;;
14892;SDS011;7538;53.626;9.906;2023-12-28T00:33:56;2.55;;;2.20;;
14892;SDS011;7538;53.626;9.906;2023-12-28T00:36:24;2.72;;;2.03;;
14892;SDS011;7538;53.626;9.906;2023-12-28T00:38:52;6.07;;;2.40;;
14892;SDS011;7538;53.626;9.906;2023-12-28T00:41:19;3.67;;;2.53;;
14892;SDS011;7538;53.626;9.906;2023-12-28T00:43:46;4.57;;;2.30;;
14892;SDS011;7538;53.626;9.906;2023-12-28T00:46:13;3.55;;;2.50;;
14892;SDS011;7538;53.626;9.906;2023-12-28T00:48:40;2.75;;;2.50;;
14892;SDS011;7538;53.626;9.906;2023-12-28T00:51:07;4.15;;;2.38;;
14892;SDS011;7538;53.626;9.906;2023-12-28T00:53:35;3.78;;;2.30;;
14892;SDS011;7538;53.626;9.906;2023-12-28T00:56:02;2.67;;;2.30;;
14892;SDS011;7538;53.626;9.906;2023-12-28T00:58:30;4.07;;;2.20;;
14892;SDS011;7538;53.626;9.906;2023-12-28T01:00:57;4.13;;;2.40;;
14892;SDS011;7538;53.626;9.906;2023-12-28T01:03:23;4.30;;;2.57;;
14892;SDS011;7538;53.626;9.906;2023-12-28T01:05:50;4.22;;;2.30;;
14892;SDS011;7538;53.626;9.906;2023-12-28T01:08:18;2.97;;;2.30;;
14892;SDS011;7538;53.626;9.906;2023-12-28T01:10:46;4.55;;;2.42;;
14892;SDS011;7538;53.626;9.906;2023-12-28T01:13:13;3.08;;;2.50;;
14892;SDS011;7538;53.626;9.906;2023-12-28T01:15:40;2.85;;;2.50;;
14892;SDS011;7538;53.626;9.906;2023-12-28T01:18:07;5.37;;;3.20;;
14892;SDS011;7538;53.626;9.906;2023-12-28T01:20:34;4.03;;;2.35;;
14892;SDS011;7538;53.626;9.906;2023-12-28T01:23:00;3.15;;;2.50;;
14892;SDS011;7538;53.626;9.906;2023-12-28T01:25:28;4.60;;;2.80;;
14892;SDS011;7538;53.626;9.906;2023-12-28T01:27:56;6.80;;;3.23;;
14892;SDS011;7538;53.626;9.906;2023-12-28T01:30:23;4.60;;;2.83;;
14892;SDS011;7538;53.626;9.906;2023-12-28T01:32:50;4.93;;;2.93;;
14892;SDS011;7538;53.626;9.906;2023-12-28T01:35:17;4.37;;;2.97;;
14892;SDS011;7538;53.626;9.906;2023-12-28T01:37:44;3.28;;;2.85;;
14892;SDS011;7538;53.626;9.906;2023-12-28T01:40:11;4.00;;;2.75;;
14892;SDS011;7538;53.626;9.906;2023-12-28T01:42:38;4.75;;;2.50;;
14892;SDS011;7538;53.626;9.906;2023-12-28T01:45:06;4.20;;;2.83;;
14892;SDS011;7538;53.626;9.906;2023-12-28T01:47:34;5.25;;;2.95;;
14892;SDS011;7538;53.626;9.906;2023-12-28T01:50:01;4.03;;;2.78;;
14892;SDS011;7538;53.626;9.906;2023-12-28T01:52:28;5.30;;;3.00;;
14892;SDS011;7538;53.626;9.906;2023-12-28T01:54:56;5.40;;;2.92;;
14892;SDS011;7538;53.626;9.906;2023-12-28T01:57:23;5.13;;;2.92;;
14892;SDS011;7538;53.626;9.906;2023-12-28T01:59:50;4.57;;;2.75;;
14892;SDS011;7538;53.626;9.906;2023-12-28T02:02:19;3.47;;;2.88;;
14892;SDS011;7538;53.626;9.906;2023-12-28T02:04:46;4.47;;;3.05;;
14892;SDS011;7538;53.626;9.906;2023-12-28T02:07:13;4.25;;;2.80;;
14892;SDS011;7538;53.626;9.906;2023-12-28T02:09:41;4.97;;;2.65;;
14892;SDS011;7538;53.626;9.906;2023-12-28T02:12:08;4.53;;;3.05;;
14892;SDS011;7538;53.626;9.906;2023-12-28T02:14:35;4.57;;;2.97;;
14892;SDS011;7538;53.626;9.906;2023-12-28T02:17:03;3.65;;;2.78;;
14892;SDS011;7538;53.626;9.906;2023-12-28T02:19:45;3.38;;;3.05;;
14892;SDS011;7538;53.626;9.906;2023-12-28T02:22:15;3.72;;;2.78;;
14892;SDS011;7538;53.626;9.906;2023-12-28T02:25:05;3.37;;;2.70;;
14892;SDS011;7538;53.626;9.906;2023-12-28T02:27:33;5.05;;;2.50;;
14892;SDS011;7538;53.626;9.906;2023-12-28T02:30:03;3.47;;;2.90;;
14892;SDS011;7538;53.626;9.906;2023-12-28T02:32:46;4.65;;;3.03;;
14892;SDS011;7538;53.626;9.906;2023-12-28T02:35:20;5.38;;;3.30;;
14892;SDS011;7538;53.626;9.906;2023-12-28T02:37:52;3.70;;;3.10;;
14892;SDS011;7538;53.626;9.906;2023-12-28T02:40:23;4.28;;;2.70;;
14892;SDS011;7538;53.626;9.906;2023-12-28T02:42:51;3.53;;;3.13;;
14892;SDS011;7538;53.626;9.906;2023-12-28T02:45:19;4.80;;;3.00;;
14892;SDS011;7538;53.626;9.906;2023-12-28T02:47:45;3.17;;;2.80;;
14892;SDS011;7538;53.626;9.906;2023-12-28T02:50:12;5.00;;;2.90;;
14892;SDS011;7538;53.626;9.906;2023-12-28T02:52:41;6.40;;;3.17;;
14892;SDS011;7538;53.626;9.906;2023-12-28T02:55:08;5.07;;;3.10;;
14892;SDS011;7538;53.626;9.906;2023-12-28T02:57:37;6.65;;;3.38;;
14892;SDS011;7538;53.626;9.906;2023-12-28T03:00:04;2.97;;;2.47;;
14892;SDS011;7538;53.626;9.906;2023-12-28T03:02:34;4.45;;;3.05;;
14892;SDS011;7538;53.626;9.906;2023-12-28T03:05:02;5.15;;;3.47;;
14892;SDS011;7538;53.626;9.906;2023-12-28T03:07:29;4.28;;;3.58;;
14892;SDS011;7538;53.626;9.906;2023-12-28T03:09:56;3.70;;;2.80;;
14892;SDS011;7538;53.626;9.906;2023-12-28T03:12:23;4.65;;;2.97;;
14892;SDS011;7538;53.626;9.906;2023-12-28T03:14:51;3.83;;;2.97;;
14892;SDS011;7538;53.626;9.906;2023-12-28T03:17:18;5.30;;;3.10;;
14892;SDS011;7538;53.626;9.906;2023-12-28T03:19:45;3.20;;;2.85;;
14892;SDS011;7538;53.626;9.906;2023-12-28T03:22:12;4.32;;;3.13;;
14892;SDS011;7538;53.626;9.906;2023-12-28T03:24:39;4.07;;;2.85;;
14892;SDS011;7538;53.626;9.906;2023-12-28T03:27:06;5.95;;;3.40;;
14892;SDS011;7538;53.626;9.906;2023-12-28T03:29:33;5.13;;;3.73;;
14892;SDS011;7538;53.626;9.906;2023-12-28T03:32:02;4.70;;;3.60;;
14892;SDS011;7538;53.626;9.906;2023-12-28T03:34:29;4.78;;;3.30;;
14892;SDS011;7538;53.626;9.906;2023-12-28T03:36:56;3.42;;;3.08;;
14892;SDS011;7538;53.626;9.906;2023-12-28T03:39:23;4.78;;;3.50;;
14892;SDS011;7538;53.626;9.906;2023-12-28T03:41:50;4.03;;;2.90;;
14892;SDS011;7538;53.626;9.906;2023-12-28T03:44:18;2.88;;;2.58;;
14892;SDS011;7538;53.626;9.906;2023-12-28T03:46:47;4.72;;;3.42;;
14892;SDS011;7538;53.626;9.906;2023-12-28T03:49:16;5.73;;;3.20;;
14892;SDS011;7538;53.626;9.906;2023-12-28T03:51:43;4.03;;;2.67;;
14892;SDS011;7538;53.626;9.906;2023-12-28T03:54:10;4.32;;;2.80;;
14892;SDS011;7538;53.626;9.906;2023-12-28T03:56:37;4.40;;;3.30;;
14892;SDS011;7538;53.626;9.906;2023-12-28T03:59:05;5.95;;;3.50;;
14892;SDS011;7538;53.626;9.906;2023-12-28T04:01:32;6.45;;;3.60;;
14892;SDS011;7538;53.626;9.906;2023-12-28T04:03:59;4.97;;;3.17;;
14892;SDS011;7538;53.626;9.906;2023-12-28T04:06:28;4.90;;;3.10;;
14892;SDS011;7538;53.626;9.906;2023-12-28T04:08:55;4.72;;;2.88;;
14892;SDS011;7538;53.626;9.906;2023-12-28T04:11:22;5.63;;;3.13;;
14892;SDS011;7538;53.626;9.906;2023-12-28T04:17:03;3.85;;;3.25;;
14892;SDS011;7538;53.626;9.906;2023-12-28T04:19:30;7.32;;;3.63;;
14892;SDS011;7538;53.626;9.906;2023-12-28T04:21:59;4.67;;;3.10;;
14892;SDS011;7538;53.626;9.906;2023-12-28T04:27:47;6.20;;;3.47;;
14892;SDS011;7538;53.626;9.906;2023-12-28T04:30:14;5.37;;;3.53;;
14892;SDS011;7538;53.626;9.906;2023-12-28T04:32:41;4.50;;;3.30;;
14892;SDS011;7538;53.626;9.906;2023-12-28T04:35:08;5.18;;;3.60;;
14892;SDS011;7538;53.626;9.906;2023-12-28T04:37:37;6.27;;;3.50;;
14892;SDS011;7538;53.626;9.906;2023-12-28T04:40:04;5.23;;;3.40;;
14892;SDS011;7538;53.626;9.906;2023-12-28T04:42:31;3.90;;;3.00;;
14892;SDS011;7538;53.626;9.906;2023-12-28T04:48:20;4.20;;;3.10;;
14892;SDS011;7538;53.626;9.906;2023-12-28T04:50:49;5.40;;;3.08;;
14892;SDS011;7538;53.626;9.906;2023-12-28T04:53:19;4.68;;;3.38;;
14892;SDS011;7538;53.626;9.906;2023-12-28T04:55:46;4.45;;;3.10;;
14892;SDS011;7538;53.626;9.906;2023-12-28T04:58:13;7.60;;;3.70;;
14892;SDS011;7538;53.626;9.906;2023-12-28T05:00:40;7.27;;;3.73;;
14892;SDS011;7538;53.626;9.906;2023-12-28T05:03:07;4.23;;;3.73;;
14892;SDS011;7538;53.626;9.906;2023-12-28T05:05:35;5.90;;;3.50;;
14892;SDS011;7538;53.626;9.906;2023-12-28T05:08:02;6.90;;;3.53;;
14892;SDS011;7538;53.626;9.906;2023-12-28T05:10:30;5.55;;;3.72;;
14892;SDS011;7538;53.626;9.906;2023-12-28T05:12:57;5.10;;;3.53;;
14892;SDS011;7538;53.626;9.906;2023-12-28T05:15:24;5.72;;;3.60;;
14892;SDS011;7538;53.626;9.906;2023-12-28T05:17:51;6.40;;;3.70;;
14892;SDS011;7538;53.626;9.906;2023-12-28T05:20:18;5.10;;;3.50;;
14892;SDS011;7538;53.626;9.906;2023-12-28T05:22:45;4.82;;;3.47;;
14892;SDS011;7538;53.626;9.906;2023-12-28T05:25:12;5.20;;;3.40;;
14892;SDS011;7538;53.626;9.906;2023-12-28T05:27:40;6.80;;;3.92;;
14892;SDS011;7538;53.626;9.906;2023-12-28T05:30:08;10.07;;;3.95;;
14892;SDS011;7538;53.626;9.906;2023-12-28T05:32:35;5.55;;;3.53;;
14892;SDS011;7538;53.626;9.906;2023-12-28T05:35:03;5.07;;;3.35;;
14892;SDS011;7538;53.626;9.906;2023-12-28T05:37:30;5.17;;;3.43;;
14892;SDS011;7538;53.626;9.906;2023-12-28T05:39:57;6.63;;;3.67;;
14892;SDS011;7538;53.626;9.906;2023-12-28T05:42:24;5.32;;;3.67;;
14892;SDS011;7538;53.626;9.906;2023-12-28T05:44:52;5.53;;;4.00;;
14892;SDS011;7538;53.626;9.906;2023-12-28T05:47:19;6.13;;;3.73;;
14892;SDS011;7538;53.626;9.906;2023-12-28T05:49:46;5.07;;;3.33;;
14892;SDS011;7538;53.626;9.906;2023-12-28T05:52:13;5.77;;;3.90;;
14892;SDS011;7538;53.626;9.906;2023-12-28T05:54:43;7.73;;;3.90;;
14892;SDS011;7538;53.626;9.906;2023-12-28T05:57:10;7.07;;;3.83;;
14892;SDS011;7538;53.626;9.906;2023-12-28T05:59:37;5.70;;;3.90;;
14892;SDS011;7538;53.626;9.906;2023-12-28T06:02:07;5.10;;;3.30;;
14892;SDS011;7538;53.626;9.906;2023-12-28T06:04:34;6.20;;;3.57;;
14892;SDS011;7538;53.626;9.906;2023-12-28T06:07:02;5.50;;;3.60;;
14892;SDS011;7538;53.626;9.906;2023-12-28T06:09:29;4.83;;;3.60;;
14892;SDS011;7538;53.626;9.906;2023-12-28T06:11:56;7.77;;;3.70;;
14892;SDS011;7538;53.626;9.906;2023-12-28T06:14:23;5.60;;;3.78;;
14892;SDS011;7538;53.626;9.906;2023-12-28T06:16:50;5.75;;;3.72;;
14892;SDS011;7538;53.626;9.906;2023-12-28T06:19:18;5.03;;;3.72;;
14892;SDS011;7538;53.626;9.906;2023-12-28T06:21:46;5.40;;;3.58;;
14892;SDS011;7538;53.626;9.906;2023-12-28T06:24:13;5.03;;;3.27;;
14892;SDS011;7538;53.626;9.906;2023-12-28T06:26:40;6.35;;;3.97;;
14892;SDS011;7538;53.626;9.906;2023-12-28T06:29:07;8.45;;;3.85;;
14892;SDS011;7538;53.626;9.906;2023-12-28T06:31:34;6.17;;;3.77;;
14892;SDS011;7538;53.626;9.906;2023-12-28T06:34:02;4.22;;;3.10;;
14892;SDS011;7538;53.626;9.906;2023-12-28T06:36:30;9.98;;;3.70;;
14892;SDS011;7538;53.626;9.906;2023-12-28T06:38:57;4.78;;;3.15;;
14892;SDS011;7538;53.626;9.906;2023-12-28T06:41:24;4.55;;;3.03;;
14892;SDS011;7538;53.626;9.906;2023-12-28T06:43:51;6.18;;;3.13;;
14892;SDS011;7538;53.626;9.906;2023-12-28T06:46:19;5.20;;;3.47;;
14892;SDS011;7538;53.626;9.906;2023-12-28T06:48:45;5.43;;;3.55;;
14892;SDS011;7538;53.626;9.906;2023-12-28T06:51:15;5.25;;;3.20;;
14892;SDS011;7538;53.626;9.906;2023-12-28T06:53:44;6.53;;;2.90;;
14892;SDS011;7538;53.626;9.906;2023-12-28T06:56:11;7.18;;;3.58;;
14892;SDS011;7538;53.626;9.906;2023-12-28T06:58:38;3.75;;;2.60;;
14892;SDS011;7538;53.626;9.906;2023-12-28T07:01:05;8.63;;;3.00;;
14892;SDS011;7538;53.626;9.906;2023-12-28T07:03:33;5.13;;;3.20;;
14892;SDS011;7538;53.626;9.906;2023-12-28T07:06:00;8.38;;;3.50;;
14892;SDS011;7538;53.626;9.906;2023-12-28T07:08:28;8.00;;;3.35;;
14892;SDS011;7538;53.626;9.906;2023-12-28T07:10:56;4.28;;;2.67;;
14892;SDS011;7538;53.626;9.906;2023-12-28T07:13:23;5.55;;;2.97;;
14892;SDS011;7538;53.626;9.906;2023-12-28T07:15:50;4.70;;;3.10;;
14892;SDS011;7538;53.626;9.906;2023-12-28T07:18:18;4.30;;;3.15;;
14892;SDS011;7538;53.626;9.906;2023-12-28T07:20:45;6.35;;;3.10;;
14892;SDS011;7538;53.626;9.906;2023-12-28T07:23:12;5.93;;;3.42;;
14892;SDS011;7538;53.626;9.906;2023-12-28T07:25:39;8.43;;;3.55;;
14892;SDS011;7538;53.626;9.906;2023-12-28T07:28:07;9.25;;;3.63;;
14892;SDS011;7538;53.626;9.906;2023-12-28T07:30:34;4.85;;;3.13;;
14892;SDS011;7538;53.626;9.906;2023-12-28T07:33:02;5.20;;;2.85;;
14892;SDS011;7538;53.626;9.906;2023-12-28T07:35:30;6.45;;;3.22;;
14892;SDS011;7538;53.626;9.906;2023-12-28T07:37:57;4.28;;;2.80;;
14892;SDS011;7538;53.626;9.906;2023-12-28T07:40:24;5.78;;;2.97;;
14892;SDS011;7538;53.626;9.906;2023-12-28T07:42:51;7.05;;;3.42;;
14892;SDS011;7538;53.626;9.906;2023-12-28T07:45:19;6.88;;;3.00;;
14892;SDS011;7538;53.626;9.906;2023-12-28T07:47:48;5.30;;;2.80;;
14892;SDS011;7538;53.626;9.906;2023-12-28T07:50:16;6.50;;;2.95;;
14892;SDS011;7538;53.626;9.906;2023-12-28T07:52:43;7.32;;;2.95;;
14892;SDS011;7538;53.626;9.906;2023-12-28T07:55:11;6.13;;;2.95;;
14892;SDS011;7538;53.626;9.906;2023-12-28T07:57:38;8.45;;;3.15;;
14892;SDS011;7538;53.626;9.906;2023-12-28T08:00:05;8.23;;;3.00;;
14892;SDS011;7538;53.626;9.906;2023-12-28T08:02:34;6.65;;;2.80;;
14892;SDS011;7538;53.626;9.906;2023-12-28T08:05:02;5.75;;;3.03;;
14892;SDS011;7538;53.626;9.906;2023-12-28T08:07:29;6.78;;;3.03;;
14892;SDS011;7538;53.626;9.906;2023-12-28T08:09:56;6.97;;;3.00;;
14892;SDS011;7538;53.626;9.906;2023-12-28T08:12:23;7.03;;;2.92;;
14892;SDS011;7538;53.626;9.906;2023-12-28T08:14:52;7.03;;;2.85;;
14892;SDS011;7538;53.626;9.906;2023-12-28T08:17:19;7.63;;;2.60;;
14892;SDS011;7538;53.626;9.906;2023-12-28T08:19:48;4.40;;;2.50;;
14892;SDS011;7538;53.626;9.906;2023-12-28T08:22:15;6.32;;;3.47;;
14892;SDS011;7538;53.626;9.906;2023-12-28T08:24:41;4.68;;;2.80;;
14892;SDS011;7538;53.626;9.906;2023-12-28T08:27:08;4.78;;;2.88;;
14892;SDS011;7538;53.626;9.906;2023-12-28T08:29:35;6.50;;;2.95;;
14892;SDS011;7538;53.626;9.906;2023-12-28T08:32:03;7.63;;;2.97;;
14892;SDS011;7538;53.626;9.906;2023-12-28T08:34:30;8.48;;;2.70;;
14892;SDS011;7538;53.626;9.906;2023-12-28T08:36:58;7.70;;;2.80;;
14892;SDS011;7538;53.626;9.906;2023-12-28T08:39:25;5.47;;;2.75;;
14892;SDS011;7538;53.626;9.906;2023-12-28T08:41:52;6.65;;;2.58;;
14892;SDS011;7538;53.626;9.906;2023-12-28T08:44:19;8.38;;;2.65;;
14892;SDS011;7538;53.626;9.906;2023-12-28T08:46:46;4.95;;;2.22;;
14892;SDS011;7538;53.626;9.906;2023-12-28T08:49:13;6.68;;;2.63;;
14892;SDS011;7538;53.626;9.906;2023-12-28T08:51:41;6.85;;;2.60;;
14892;SDS011;7538;53.626;9.906;2023-12-28T08:54:09;7.75;;;3.05;;
14892;SDS011;7538;53.626;9.906;2023-12-28T08:56:36;7.20;;;2.58;;
14892;SDS011;7538;53.626;9.906;2023-12-28T08:59:04;7.45;;;2.67;;
14892;SDS011;7538;53.626;9.906;2023-12-28T09:01:31;9.57;;;2.78;;
14892;SDS011;7538;53.626;9.906;2023-12-28T09:03:58;6.82;;;2.70;;
14892;SDS011;7538;53.626;9.906;2023-12-28T09:06:26;7.30;;;2.67;;
14892;SDS011;7538;53.626;9.906;2023-12-28T09:08:53;7.95;;;2.50;;
14892;SDS011;7538;53.626;9.906;2023-12-28T09:11:21;7.43;;;2.92;;
14892;SDS011;7538;53.626;9.906;2023-12-28T09:13:48;6.38;;;2.25;;
14892;SDS011;7538;53.626;9.906;2023-12-28T09:16:15;5.20;;;2.25;;
14892;SDS011;7538;53.626;9.906;2023-12-28T09:18:43;5.60;;;2.65;;
14892;SDS011;7538;53.626;9.906;2023-12-28T09:21:10;8.65;;;2.55;;
14892;SDS011;7538;53.626;9.906;2023-12-28T09:23:37;7.65;;;2.63;;
14892;SDS011;7538;53.626;9.906;2023-12-28T09:26:05;7.50;;;2.65;;
14892;SDS011;7538;53.626;9.906;2023-12-28T09:28:34;9.30;;;2.30;;
14892;SDS011;7538;53.626;9.906;2023-12-28T09:31:01;6.32;;;2.25;;
14892;SDS011;7538;53.626;9.906;2023-12-28T09:33:29;12.63;;;2.95;;
14892;SDS011;7538;53.626;9.906;2023-12-28T09:35:56;6.45;;;2.47;;
14892;SDS011;7538;53.626;9.906;2023-12-28T09:38:23;7.82;;;2.85;;
14892;SDS011;7538;53.626;9.906;2023-12-28T09:40:52;10.05;;;3.22;;
14892;SDS011;7538;53.626;9.906;2023-12-28T09:43:21;4.38;;;2.35;;
14892;SDS011;7538;53.626;9.906;2023-12-28T09:45:51;4.90;;;2.47;;
14892;SDS011;7538;53.626;9.906;2023-12-28T09:48:19;7.28;;;2.33;;
14892;SDS011;7538;53.626;9.906;2023-12-28T09:50:48;10.18;;;2.50;;
14892;SDS011;7538;53.626;9.906;2023-12-28T09:53:15;10.85;;;2.47;;
14892;SDS011;7538;53.626;9.906;2023-12-28T09:55:43;8.05;;;2.50;;
14892;SDS011;7538;53.626;9.906;2023-12-28T09:58:11;10.35;;;2.53;;
14892;SDS011;7538;53.626;9.906;2023-12-28T10:00:43;5.88;;;2.05;;
14892;SDS011;7538;53.626;9.906;2023-12-28T10:03:12;5.40;;;2.38;;
14892;SDS011;7538;53.626;9.906;2023-12-28T10:05:40;8.57;;;2.05;;
14892;SDS011;7538;53.626;9.906;2023-12-28T10:08:07;8.25;;;2.17;;
14892;SDS011;7538;53.626;9.906;2023-12-28T10:10:34;8.18;;;2.38;;
14892;SDS011;7538;53.626;9.906;2023-12-28T10:13:01;5.97;;;2.10;;
14892;SDS011;7538;53.626;9.906;2023-12-28T10:15:30;11.48;;;2.50;;
14892;SDS011;7538;53.626;9.906;2023-12-28T10:17:57;7.15;;;2.42;;
14892;SDS011;7538;53.626;9.906;2023-12-28T10:20:27;6.65;;;2.25;;
14892;SDS011;7538;53.626;9.906;2023-12-28T10:22:54;7.18;;;2.60;;
14892;SDS011;7538;53.626;9.906;2023-12-28T10:25:21;10.55;;;2.42;;
14892;SDS011;7538;53.626;9.906;2023-12-28T10:27:50;6.00;;;2.30;;
14892;SDS011;7538;53.626;9.906;2023-12-28T10:30:17;8.52;;;2.70;;
14892;SDS011;7538;53.626;9.906;2023-12-28T10:32:46;6.97;;;2.45;;
14892;SDS011;7538;53.626;9.906;2023-12-28T10:35:13;9.05;;;2.72;;
14892;SDS011;7538;53.626;9.906;2023-12-28T10:37:42;6.72;;;2.25;;
14892;SDS011;7538;53.626;9.906;2023-12-28T10:40:11;5.47;;;2.40;;
14892;SDS011;7538;53.626;9.906;2023-12-28T10:42:42;12.80;;;2.70;;
14892;SDS011;7538;53.626;9.906;2023-12-28T10:45:16;7.78;;;2.78;;
14892;SDS011;7538;53.626;9.906;2023-12-28T10:47:47;9.43;;;2.80;;
14892;SDS011;7538;53.626;9.906;2023-12-28T10:50:20;10.05;;;2.75;;
14892;SDS011;7538;53.626;9.906;2023-12-28T10:53:06;7.90;;;2.70;;
14892;SDS011;7538;53.626;9.906;2023-12-28T10:55:44;9.13;;;2.53;;
14892;SDS011;7538;53.626;9.906;2023-12-28T10:58:17;9.70;;;2.60;;
14892;SDS011;7538;53.626;9.906;2023-12-28T11:00:52;11.23;;;3.15;;
14892;SDS011;7538;53.626;9.906;2023-12-28T11:03:23;9.00;;;2.80;;
14892;SDS011;7538;53.626;9.906;2023-12-28T11:05:54;10.52;;;3.15;;
14892;SDS011;7538;53.626;9.906;2023-12-28T11:08:24;7.40;;;2.75;;
14892;SDS011;7538;53.626;9.906;2023-12-28T11:10:51;9.48;;;3.58;;
14892;SDS011;7538;53.626;9.906;2023-12-28T11:13:19;5.32;;;2.28;;
14892;SDS011;7538;53.626;9.906;2023-12-28T11:15:47;12.15;;;3.67;;
14892;SDS011;7538;53.626;9.906;2023-12-28T11:18:16;10.10;;;2.88;;
14892;SDS011;7538;53.626;9.906;2023-12-28T11:20:44;8.60;;;2.72;;
14892;SDS011;7538;53.626;9.906;2023-12-28T11:23:11;8.00;;;2.55;;
14892;SDS011;7538;53.626;9.906;2023-12-28T11:25:40;10.75;;;3.15;;
14892;SDS011;7538;53.626;9.906;2023-12-28T11:28:12;8.27;;;2.92;;
14892;SDS011;7538;53.626;9.906;2023-12-28T11:30:41;10.48;;;3.15;;
14892;SDS011;7538;53.626;9.906;2023-12-28T11:33:09;8.32;;;2.67;;
14892;SDS011;7538;53.626;9.906;2023-12-28T11:35:36;10.57;;;2.80;;
14892;SDS011;7538;53.626;9.906;2023-12-28T11:38:06;10.20;;;3.00;;
14892;SDS011;7538;53.626;9.906;2023-12-28T11:40:44;8.75;;;3.25;;
14892;SDS011;7538;53.626;9.906;2023-12-28T11:43:17;13.55;;;3.60;;
14892;SDS011;7538;53.626;9.906;2023-12-28T11:45:55;11.38;;;3.28;;
14892;SDS011;7538;53.626;9.906;2023-12-28T11:48:23;9.65;;;3.20;;
14892;SDS011;7538;53.626;9.906;2023-12-28T11:50:53;9.55;;;2.67;;
14892;SDS011;7538;53.626;9.906;2023-12-28T11:53:22;12.20;;;3.75;;
14892;SDS011;7538;53.626;9.906;2023-12-28T11:55:51;12.73;;;3.15;;
14892;SDS011;7538;53.626;9.906;2023-12-28T11:58:25;10.80;;;3.25;;
14892;SDS011;7538;53.626;9.906;2023-12-28T12:00:52;10.40;;;3.13;;
14892;SDS011;7538;53.626;9.906;2023-12-28T12:03:19;9.63;;;2.85;;
14892;SDS011;7538;53.626;9.906;2023-12-28T12:05:46;9.93;;;3.08;;
14892;SDS011;7538;53.626;9.906;2023-12-28T12:11:01;10.57;;;3.15;;
14892;SDS011;7538;53.626;9.906;2023-12-28T12:13:29;11.57;;;3.63;;
14892;SDS011;7538;53.626;9.906;2023-12-28T12:15:56;16.67;;;3.47;;
14892;SDS011;7538;53.626;9.906;2023-12-28T12:18:24;11.55;;;3.50;;
14892;SDS011;7538;53.626;9.906;2023-12-28T12:20:51;9.95;;;2.90;;
14892;SDS011;7538;53.626;9.906;2023-12-28T12:23:18;8.88;;;2.88;;
14892;SDS011;7538;53.626;9.906;2023-12-28T12:25:45;14.63;;;3.78;;
14892;SDS011;7538;53.626;9.906;2023-12-28T12:28:14;11.07;;;3.30;;
14892;SDS011;7538;53.626;9.906;2023-12-28T12:30:48;10.52;;;3.13;;
14892;SDS011;7538;53.626;9.906;2023-12-28T12:33:16;10.52;;;3.25;;
14892;SDS011;7538;53.626;9.906;2023-12-28T12:35:43;13.15;;;3.67;;
14892;SDS011;7538;53.626;9.906;2023-12-28T12:38:10;16.38;;;3.75;;
14892;SDS011;7538;53.626;9.906;2023-12-28T12:40:37;13.65;;;3.83;;
14892;SDS011;7538;53.626;9.906;2023-12-28T12:43:05;12.63;;;4.43;;
14892;SDS011;7538;53.626;9.906;2023-12-28T12:45:35;11.90;;;3.70;;
14892;SDS011;7538;53.626;9.906;2023-12-28T12:48:02;13.80;;;3.63;;
14892;SDS011;7538;53.626;9.906;2023-12-28T12:50:30;19.27;;;5.15;;
14892;SDS011;7538;53.626;9.906;2023-12-28T12:52:58;13.10;;;3.95;;
14892;SDS011;7538;53.626;9.906;2023-12-28T12:55:26;9.40;;;3.83;;
14892;SDS011;7538;53.626;9.906;2023-12-28T12:57:53;12.50;;;3.45;;
14892;SDS011;7538;53.626;9.906;2023-12-28T13:00:21;11.10;;;3.30;;
14892;SDS011;7538;53.626;9.906;2023-12-28T13:02:50;10.88;;;3.03;;
14892;SDS011;7538;53.626;9.906;2023-12-28T13:05:18;13.38;;;3.30;;
14892;SDS011;7538;53.626;9.906;2023-12-28T13:07:45;28.92;;;15.73;;
14892;SDS011;7538;53.626;9.906;2023-12-28T13:10:12;18.10;;;5.82;;
14892;SDS011;7538;53.626;9.906;2023-12-28T13:12:40;8.32;;;3.28;;
14892;SDS011;7538;53.626;9.906;2023-12-28T13:15:07;13.52;;;4.25;;
14892;SDS011;7538;53.626;9.906;2023-12-28T13:17:35;15.43;;;4.38;;
14892;SDS011;7538;53.626;9.906;2023-12-28T13:20:04;13.48;;;3.60;;
14892;SDS011;7538;53.626;9.906;2023-12-28T13:22:32;8.73;;;2.70;;
14892;SDS011;7538;53.626;9.906;2023-12-28T13:24:59;11.20;;;3.42;;
14892;SDS011;7538;53.626;9.906;2023-12-28T13:27:26;10.57;;;3.45;;
14892;SDS011;7538;53.626;9.906;2023-12-28T13:29:54;14.40;;;5.30;;
14892;SDS011;7538;53.626;9.906;2023-12-28T13:32:21;8.75;;;3.60;;
14892;SDS011;7538;53.626;9.906;2023-12-28T13:34:48;8.45;;;2.90;;
14892;SDS011;7538;53.626;9.906;2023-12-28T13:37:18;12.35;;;3.20;;
14892;SDS011;7538;53.626;9.906;2023-12-28T13:39:45;11.35;;;3.50;;
14892;SDS011;7538;53.626;9.906;2023-12-28T13:42:12;13.55;;;4.28;;
14892;SDS011;7538;53.626;9.906;2023-12-28T13:44:39;9.88;;;3.40;;
14892;SDS011;7538;53.626;9.906;2023-12-28T13:47:06;10.85;;;2.95;;
14892;SDS011;7538;53.626;9.906;2023-12-28T13:49:33;11.68;;;3.50;;
14892;SDS011;7538;53.626;9.906;2023-12-28T13:52:01;8.82;;;3.03;;
14892;SDS011;7538;53.626;9.906;2023-12-28T13:54:30;14.90;;;3.58;;
14892;SDS011;7538;53.626;9.906;2023-12-28T13:56:57;12.82;;;3.58;;
14892;SDS011;7538;53.626;9.906;2023-12-28T13:59:25;13.90;;;3.42;;
14892;SDS011;7538;53.626;9.906;2023-12-28T14:01:52;12.82;;;3.08;;
14892;SDS011;7538;53.626;9.906;2023-12-28T14:04:19;13.35;;;3.65;;
14892;SDS011;7538;53.626;9.906;2023-12-28T14:06:46;11.77;;;3.50;;
14892;SDS011;7538;53.626;9.906;2023-12-28T14:09:13;9.25;;;3.30;;
14892;SDS011;7538;53.626;9.906;2023-12-28T14:11:46;11.40;;;3.60;;
14892;SDS011;7538;53.626;9.906;2023-12-28T14:14:13;11.23;;;3.35;;
14892;SDS011;7538;53.626;9.906;2023-12-28T14:16:40;14.10;;;3.80;;
14892;SDS011;7538;53.626;9.906;2023-12-28T14:19:07;8.98;;;3.08;;
14892;SDS011;7538;53.626;9.906;2023-12-28T14:21:35;9.77;;;3.40;;
14892;SDS011;7538;53.626;9.906;2023-12-28T14:24:03;15.30;;;4.03;;
14892;SDS011;7538;53.626;9.906;2023-12-28T14:26:33;10.90;;;3.35;;
14892;SDS011;7538;53.626;9.906;2023-12-28T14:29:02;11.63;;;3.25;;
14892;SDS011;7538;53.626;9.906;2023-12-28T14:31:30;13.43;;;3.05;;
14892;SDS011;7538;53.626;9.906;2023-12-28T14:33:58;11.45;;;3.47;;
14892;SDS011;7538;53.626;9.906;2023-12-28T14:36:27;8.00;;;2.83;;
14892;SDS011;7538;53.626;9.906;2023-12-28T14:38:57;12.45;;;4.07;;
14892;SDS011;7538;53.626;9.906;2023-12-28T14:41:24;13.23;;;3.45;;
14892;SDS011;7538;53.626;9.906;2023-12-28T14:43:51;12.23;;;3.60;;
14892;SDS011;7538;53.626;9.906;2023-12-28T14:46:20;11.30;;;3.75;;
14892;SDS011;7538;53.626;9.906;2023-12-28T14:48:47;11.40;;;3.40;;
14892;SDS011;7538;53.626;9.906;2023-12-28T14:51:13;16.83;;;3.78;;
14892;SDS011;7538;53.626;9.906;2023-12-28T14:53:40;13.93;;;2.97;;
14892;SDS011;7538;53.626;9.906;2023-12-28T14:56:08;9.77;;;3.00;;
14892;SDS011;7538;53.626;9.906;2023-12-28T14:58:35;12.00;;;2.83;;
14892;SDS011;7538;53.626;9.906;2023-12-28T15:01:02;10.85;;;3.70;;
14892;SDS011;7538;53.626;9.906;2023-12-28T15:03:31;10.50;;;3.20;;
14892;SDS011;7538;53.626;9.906;2023-12-28T15:05:58;11.10;;;3.03;;
14892;SDS011;7538;53.626;9.906;2023-12-28T15:08:25;11.55;;;3.20;;
14892;SDS011;7538;53.626;9.906;2023-12-28T15:10:53;13.20;;;3.70;;
14892;SDS011;7538;53.626;9.906;2023-12-28T15:13:20;14.75;;;3.65;;
14892;SDS011;7538;53.626;9.906;2023-12-28T15:15:47;11.25;;;3.28;;